Terminal Aerodrome Forecast
Issued by NWS

Home | Current Version | Previous Version | Text Only | Print | Product List | Glossary On
Versions: 1 2 3 4 5 6 7 8 9 10 11 12 13 14 15 16 17 18
000
FTUS42 KTBW 160800 AAA
TAFLAL
TAF AMD
KLAL 160811Z 1608/1706 35009KT P6SM OVC015
     FM161400 03012KT P6SM FEW250
     FM170000 06015G22KT P6SM SCT030
      AMD NOT SKED TIL 161200=

USA.gov is the U.S. government's official web portal to all federal, state and local government web resources and services.